DAL2078 KSLC-KSAN
Flight info
| Callsign | DAL2078 |
|---|---|
| Flight time | N/A |
| Altitude | 40000 |
| Route | ZIONZ1 EHK LAKRR Q73 LVELL LUCKI1 |
| Aircraft | B752/M-SDE3FGHIM3RWXY/LB1 |
Departure
| Time | 2026-05-07 05:02 |
|---|---|
| Airport | Salt Lake City International Airport (KSLC) |
Arrival
| Time | N/A |
|---|---|
| Airport | San Diego International Airport (KSAN) |
| Time | Latitude | Longitude | Altitude | Speed | Heading |
|---|---|---|---|---|---|
| 2026-05-07 04:39 | 40.78476 | -111.99048 | 4228 ft | 0 kts | 355° |
| 2026-05-07 04:50 | 40.78470 | -111.99047 | 4228 ft | 4 kts | 356° |
| 2026-05-07 04:50 | 40.78465 | -111.99046 | 4228 ft | 0 kts | 354° |
| 2026-05-07 04:51 | 40.78462 | -111.99046 | 4228 ft | 2 kts | 354° |
| 2026-05-07 04:52 | 40.78461 | -111.99046 | 4228 ft | 0 kts | 354° |
| 2026-05-07 04:52 | 40.78460 | -111.99046 | 4228 ft | 0 kts | 354° |
| 2026-05-07 04:53 | 40.78451 | -111.99044 | 4228 ft | 4 kts | 341° |
| 2026-05-07 04:53 | 40.78420 | -111.99004 | 4228 ft | 1 kts | 276° |
| 2026-05-07 04:53 | 40.78421 | -111.99010 | 4228 ft | 0 kts | 276° |
| 2026-05-07 04:54 | 40.78421 | -111.99033 | 4228 ft | 4 kts | 269° |
| 2026-05-07 04:55 | 40.78419 | -111.99084 | 4228 ft | 7 kts | 265° |
| 2026-05-07 04:55 | 40.78414 | -111.99166 | 4228 ft | 10 kts | 265° |
| 2026-05-07 04:55 | 40.78410 | -111.99265 | 4228 ft | 11 kts | 268° |
| 2026-05-07 04:55 | 40.78417 | -111.99351 | 4228 ft | 8 kts | 282° |
| 2026-05-07 04:56 | 40.78434 | -111.99419 | 4227 ft | 7 kts | 313° |
| 2026-05-07 04:56 | 40.78478 | -111.99443 | 4228 ft | 6 kts | 349° |
| 2026-05-07 04:56 | 40.78533 | -111.99452 | 4228 ft | 10 kts | 355° |
| 2026-05-07 04:56 | 40.78625 | -111.99461 | 4227 ft | 16 kts | 355° |
| 2026-05-07 04:57 | 40.78758 | -111.99477 | 4227 ft | 20 kts | 355° |
| 2026-05-07 04:57 | 40.78899 | -111.99493 | 4227 ft | 19 kts | 354° |
| 2026-05-07 04:57 | 40.79030 | -111.99509 | 4227 ft | 18 kts | 354° |
| 2026-05-07 04:57 | 40.79157 | -111.99523 | 4227 ft | 17 kts | 354° |
| 2026-05-07 04:58 | 40.79277 | -111.99538 | 4227 ft | 16 kts | 356° |
| 2026-05-07 04:58 | 40.79390 | -111.99551 | 4227 ft | 15 kts | 355° |
| 2026-05-07 04:58 | 40.79499 | -111.99563 | 4227 ft | 17 kts | 355° |
| 2026-05-07 04:58 | 40.79635 | -111.99580 | 4228 ft | 22 kts | 355° |
| 2026-05-07 04:59 | 40.79802 | -111.99598 | 4230 ft | 25 kts | 355° |
| 2026-05-07 04:59 | 40.79986 | -111.99620 | 4230 ft | 26 kts | 354° |
| 2026-05-07 04:59 | 40.80165 | -111.99640 | 4230 ft | 25 kts | 355° |
| 2026-05-07 04:59 | 40.80343 | -111.99663 | 4227 ft | 25 kts | 355° |
| 2026-05-07 05:00 | 40.80512 | -111.99681 | 4227 ft | 18 kts | 354° |
| 2026-05-07 05:00 | 40.80638 | -111.99696 | 4227 ft | 17 kts | 354° |
| 2026-05-07 05:00 | 40.80739 | -111.99712 | 4227 ft | 10 kts | 340° |
| 2026-05-07 05:00 | 40.80767 | -111.99785 | 4227 ft | 9 kts | 272° |
| 2026-05-07 05:01 | 40.80764 | -111.99865 | 4227 ft | 8 kts | 264° |
| 2026-05-07 05:01 | 40.80743 | -111.99918 | 4227 ft | 7 kts | 201° |
| 2026-05-07 05:01 | 40.80609 | -111.99909 | 4227 ft | 48 kts | 174° |
| 2026-05-07 05:01 | 40.79957 | -111.99835 | 4231 ft | 136 kts | 174° |
| 2026-05-07 05:02 | 40.78837 | -111.99715 | 4494 ft | 187 kts | 175° |
| 2026-05-07 05:02 | 40.77531 | -111.99569 | 5640 ft | 186 kts | 174° |
| 2026-05-07 05:02 | 40.76329 | -111.99338 | 6359 ft | 182 kts | 171° |
| 2026-05-07 05:02 | 40.74994 | -111.99036 | 6542 ft | 209 kts | 171° |
| 2026-05-07 05:03 | 40.73490 | -111.98692 | 6862 ft | 230 kts | 172° |
| 2026-05-07 05:03 | 40.71880 | -111.98367 | 7287 ft | 248 kts | 173° |
| 2026-05-07 05:03 | 40.70139 | -111.98098 | 8018 ft | 252 kts | 177° |
| 2026-05-07 05:03 | 40.68412 | -111.98061 | 8930 ft | 246 kts | 186° |
| 2026-05-07 05:04 | 40.66721 | -111.98440 | 9539 ft | 253 kts | 201° |
| 2026-05-07 05:04 | 40.65087 | -111.99470 | 9838 ft | 271 kts | 217° |
| 2026-05-07 05:04 | 40.63271 | -112.00196 | 10410 ft | 287 kts | 177° |
| 2026-05-07 05:04 | 40.61214 | -111.99841 | 10680 ft | 313 kts | 173° |
| 2026-05-07 05:05 | 40.59022 | -111.99084 | 10965 ft | 337 kts | 164° |
| 2026-05-07 05:05 | 40.56704 | -111.98368 | 11375 ft | 356 kts | 169° |
| 2026-05-07 05:05 | 40.54249 | -111.97669 | 12186 ft | 361 kts | 168° |
| 2026-05-07 05:05 | 40.51820 | -111.96942 | 12884 ft | 368 kts | 168° |
| 2026-05-07 05:06 | 40.49293 | -111.96175 | 13639 ft | 373 kts | 167° |
| 2026-05-07 05:06 | 40.46752 | -111.95416 | 14364 ft | 377 kts | 170° |
| 2026-05-07 05:06 | 40.44151 | -111.95086 | 15002 ft | 382 kts | 178° |
| 2026-05-07 05:06 | 40.41481 | -111.94900 | 15669 ft | 388 kts | 178° |
| 2026-05-07 05:07 | 40.38789 | -111.94704 | 16338 ft | 392 kts | 177° |
| 2026-05-07 05:07 | 40.36018 | -111.94508 | 16952 ft | 398 kts | 178° |
| 2026-05-07 05:07 | 40.33263 | -111.94316 | 17591 ft | 402 kts | 177° |
| 2026-05-07 05:07 | 40.30470 | -111.94122 | 18235 ft | 406 kts | 178° |
| 2026-05-07 05:08 | 40.27622 | -111.93945 | 18854 ft | 410 kts | 181° |
| 2026-05-07 05:08 | 40.24792 | -111.94233 | 19483 ft | 412 kts | 188° |
| 2026-05-07 05:08 | 40.21943 | -111.94671 | 20136 ft | 416 kts | 188° |
| 2026-05-07 05:08 | 40.19066 | -111.95110 | 20764 ft | 420 kts | 188° |
| 2026-05-07 05:09 | 40.16168 | -111.95561 | 21428 ft | 422 kts | 188° |
| 2026-05-07 05:09 | 40.11977 | -111.96203 | 22286 ft | 427 kts | 188° |
| 2026-05-07 05:10 | 40.09029 | -111.96632 | 22769 ft | 433 kts | 188° |
| 2026-05-07 05:10 | 40.06034 | -111.97071 | 23425 ft | 434 kts | 188° |
| 2026-05-07 05:10 | 40.03019 | -111.97512 | 23860 ft | 440 kts | 188° |
| 2026-05-07 05:10 | 39.99983 | -111.97957 | 24494 ft | 441 kts | 188° |
| 2026-05-07 05:11 | 39.96903 | -111.98407 | 24977 ft | 446 kts | 188° |
| 2026-05-07 05:11 | 39.93811 | -111.98859 | 25498 ft | 448 kts | 188° |
| 2026-05-07 05:11 | 39.90727 | -111.99309 | 25984 ft | 452 kts | 188° |
| 2026-05-07 05:11 | 39.87554 | -111.99772 | 26416 ft | 456 kts | 188° |
| 2026-05-07 05:12 | 39.84414 | -112.00229 | 26955 ft | 457 kts | 188° |
| 2026-05-07 05:12 | 39.81231 | -112.00693 | 27300 ft | 463 kts | 188° |
| 2026-05-07 05:12 | 39.78068 | -112.01154 | 27821 ft | 463 kts | 188° |
| 2026-05-07 05:12 | 39.74836 | -112.01623 | 28142 ft | 469 kts | 188° |
| 2026-05-07 05:13 | 39.71609 | -112.02092 | 28649 ft | 469 kts | 188° |
| 2026-05-07 05:13 | 39.68337 | -112.02566 | 28966 ft | 474 kts | 188° |
| 2026-05-07 05:13 | 39.65051 | -112.03042 | 29466 ft | 474 kts | 188° |
| 2026-05-07 05:13 | 39.61779 | -112.03516 | 29792 ft | 479 kts | 188° |
| 2026-05-07 05:14 | 39.58464 | -112.03996 | 30215 ft | 480 kts | 188° |
| 2026-05-07 05:14 | 39.55145 | -112.04475 | 30481 ft | 485 kts | 188° |
| 2026-05-07 05:14 | 39.51769 | -112.04962 | 30886 ft | 486 kts | 188° |
| 2026-05-07 05:14 | 39.48399 | -112.05449 | 31167 ft | 491 kts | 188° |
| 2026-05-07 05:15 | 39.45005 | -112.05935 | 31535 ft | 492 kts | 187° |
| 2026-05-07 05:15 | 39.41637 | -112.06414 | 31932 ft | 493 kts | 188° |
| 2026-05-07 05:15 | 39.38216 | -112.06900 | 32311 ft | 494 kts | 187° |
| 2026-05-07 05:15 | 39.34801 | -112.07385 | 32784 ft | 492 kts | 187° |
| 2026-05-07 05:16 | 39.31389 | -112.07869 | 33257 ft | 490 kts | 187° |
| 2026-05-07 05:16 | 39.28004 | -112.08348 | 33613 ft | 492 kts | 187° |
| 2026-05-07 05:16 | 39.24651 | -112.08823 | 33985 ft | 491 kts | 187° |
| 2026-05-07 05:16 | 39.21238 | -112.09306 | 34426 ft | 490 kts | 187° |
| 2026-05-07 05:17 | 39.17874 | -112.09789 | 34886 ft | 487 kts | 189° |
| 2026-05-07 05:17 | 39.14557 | -112.10667 | 35232 ft | 484 kts | 200° |
| 2026-05-07 05:17 | 39.11466 | -112.12174 | 35750 ft | 476 kts | 209° |
| 2026-05-07 05:17 | 39.08525 | -112.14154 | 36099 ft | 473 kts | 212° |
| 2026-05-07 05:18 | 39.05660 | -112.16173 | 36452 ft | 472 kts | 213° |
| 2026-05-07 05:18 | 39.02814 | -112.18201 | 36819 ft | 470 kts | 213° |
| 2026-05-07 05:18 | 38.99961 | -112.20254 | 37099 ft | 469 kts | 213° |
| 2026-05-07 05:18 | 38.97114 | -112.22311 | 37350 ft | 468 kts | 213° |
| 2026-05-07 05:19 | 38.94289 | -112.24357 | 37598 ft | 468 kts | 214° |
| 2026-05-07 05:19 | 38.91486 | -112.26389 | 37854 ft | 467 kts | 214° |
| 2026-05-07 05:19 | 38.88623 | -112.28465 | 38029 ft | 467 kts | 213° |
| 2026-05-07 05:19 | 38.85811 | -112.30503 | 38274 ft | 465 kts | 214° |
| 2026-05-07 05:20 | 38.83005 | -112.32536 | 38448 ft | 465 kts | 214° |